sensor_id;sensor_type;location;lat;lon;timestamp;P1;durP1;ratioP1;P2;durP2;ratioP2
3259;SDS011;68938;48.150;14.004;2023-11-19T00:00:46;14.03;;;12.63;;
3259;SDS011;68938;48.150;14.004;2023-11-19T00:03:16;16.03;;;13.50;;
3259;SDS011;68938;48.150;14.004;2023-11-19T00:05:43;18.97;;;14.70;;
3259;SDS011;68938;48.150;14.004;2023-11-19T00:08:10;17.43;;;14.30;;
3259;SDS011;68938;48.150;14.004;2023-11-19T00:10:37;17.50;;;13.70;;
3259;SDS011;68938;48.150;14.004;2023-11-19T00:13:04;13.70;;;12.40;;
3259;SDS011;68938;48.150;14.004;2023-11-19T00:15:31;15.23;;;12.63;;
3259;SDS011;68938;48.150;14.004;2023-11-19T00:17:58;15.53;;;13.93;;
3259;SDS011;68938;48.150;14.004;2023-11-19T00:20:27;14.57;;;12.93;;
3259;SDS011;68938;48.150;14.004;2023-11-19T00:22:54;14.90;;;13.30;;
3259;SDS011;68938;48.150;14.004;2023-11-19T00:25:21;14.20;;;12.70;;
3259;SDS011;68938;48.150;14.004;2023-11-19T00:27:49;16.50;;;14.87;;
3259;SDS011;68938;48.150;14.004;2023-11-19T00:30:17;15.53;;;13.93;;
3259;SDS011;68938;48.150;14.004;2023-11-19T00:32:44;15.87;;;14.27;;
3259;SDS011;68938;48.150;14.004;2023-11-19T00:35:11;16.40;;;14.73;;
3259;SDS011;68938;48.150;14.004;2023-11-19T00:37:38;15.83;;;13.80;;
3259;SDS011;68938;48.150;14.004;2023-11-19T00:40:05;17.50;;;15.70;;
3259;SDS011;68938;48.150;14.004;2023-11-19T00:42:33;16.23;;;14.53;;
3259;SDS011;68938;48.150;14.004;2023-11-19T00:45:00;14.60;;;13.10;;
3259;SDS011;68938;48.150;14.004;2023-11-19T00:47:26;16.97;;;15.27;;
3259;SDS011;68938;48.150;14.004;2023-11-19T00:49:53;16.60;;;14.80;;
3259;SDS011;68938;48.150;14.004;2023-11-19T00:52:20;16.70;;;15.00;;
3259;SDS011;68938;48.150;14.004;2023-11-19T00:54:47;18.20;;;15.53;;
3259;SDS011;68938;48.150;14.004;2023-11-19T00:57:14;16.17;;;14.47;;
3259;SDS011;68938;48.150;14.004;2023-11-19T00:59:42;17.33;;;14.57;;
3259;SDS011;68938;48.150;14.004;2023-11-19T01:02:09;17.27;;;15.57;;
3259;SDS011;68938;48.150;14.004;2023-11-19T01:04:36;17.63;;;15.50;;
3259;SDS011;68938;48.150;14.004;2023-11-19T01:07:04;17.33;;;15.60;;
3259;SDS011;68938;48.150;14.004;2023-11-19T01:09:32;17.10;;;15.50;;
3259;SDS011;68938;48.150;14.004;2023-11-19T01:11:59;18.07;;;16.20;;
3259;SDS011;68938;48.150;14.004;2023-11-19T01:14:26;17.40;;;15.50;;
3259;SDS011;68938;48.150;14.004;2023-11-19T01:16:54;18.50;;;16.50;;
3259;SDS011;68938;48.150;14.004;2023-11-19T01:19:22;18.00;;;15.97;;
3259;SDS011;68938;48.150;14.004;2023-11-19T01:21:50;18.40;;;15.63;;
3259;SDS011;68938;48.150;14.004;2023-11-19T01:24:17;18.87;;;16.40;;
3259;SDS011;68938;48.150;14.004;2023-11-19T01:26:44;15.90;;;14.30;;
3259;SDS011;68938;48.150;14.004;2023-11-19T01:29:12;16.03;;;14.37;;
3259;SDS011;68938;48.150;14.004;2023-11-19T01:31:43;17.77;;;14.60;;
3259;SDS011;68938;48.150;14.004;2023-11-19T01:34:12;17.17;;;15.37;;
3259;SDS011;68938;48.150;14.004;2023-11-19T01:36:39;18.00;;;14.37;;
3259;SDS011;68938;48.150;14.004;2023-11-19T01:39:06;15.60;;;13.43;;
3259;SDS011;68938;48.150;14.004;2023-11-19T01:41:34;15.60;;;13.97;;
3259;SDS011;68938;48.150;14.004;2023-11-19T01:44:02;15.50;;;13.67;;
3259;SDS011;68938;48.150;14.004;2023-11-19T01:46:29;20.67;;;15.00;;
3259;SDS011;68938;48.150;14.004;2023-11-19T01:48:57;14.83;;;13.00;;
3259;SDS011;68938;48.150;14.004;2023-11-19T01:51:26;16.27;;;13.93;;
3259;SDS011;68938;48.150;14.004;2023-11-19T01:53:53;15.10;;;13.67;;
3259;SDS011;68938;48.150;14.004;2023-11-19T01:56:21;16.83;;;15.17;;
3259;SDS011;68938;48.150;14.004;2023-11-19T01:58:49;16.37;;;14.67;;
3259;SDS011;68938;48.150;14.004;2023-11-19T02:01:17;15.87;;;14.23;;
3259;SDS011;68938;48.150;14.004;2023-11-19T02:03:44;13.87;;;12.43;;
3259;SDS011;68938;48.150;14.004;2023-11-19T02:06:11;14.07;;;12.67;;
3259;SDS011;68938;48.150;14.004;2023-11-19T02:08:38;15.23;;;13.73;;
3259;SDS011;68938;48.150;14.004;2023-11-19T02:11:05;14.20;;;12.73;;
3259;SDS011;68938;48.150;14.004;2023-11-19T02:13:32;14.43;;;12.93;;
3259;SDS011;68938;48.150;14.004;2023-11-19T02:15:59;14.07;;;12.57;;
3259;SDS011;68938;48.150;14.004;2023-11-19T02:18:27;13.07;;;11.40;;
3259;SDS011;68938;48.150;14.004;2023-11-19T02:20:55;13.93;;;12.70;;
3259;SDS011;68938;48.150;14.004;2023-11-19T02:23:28;14.47;;;12.97;;
3259;SDS011;68938;48.150;14.004;2023-11-19T02:28:44;14.50;;;13.10;;
3259;SDS011;68938;48.150;14.004;2023-11-19T02:31:11;14.77;;;13.03;;
3259;SDS011;68938;48.150;14.004;2023-11-19T02:33:38;14.93;;;11.97;;
3259;SDS011;68938;48.150;14.004;2023-11-19T02:36:06;13.80;;;12.40;;
3259;SDS011;68938;48.150;14.004;2023-11-19T02:38:35;11.70;;;10.40;;
3259;SDS011;68938;48.150;14.004;2023-11-19T02:41:06;14.10;;;12.60;;
3259;SDS011;68938;48.150;14.004;2023-11-19T02:43:34;14.40;;;12.90;;
3259;SDS011;68938;48.150;14.004;2023-11-19T02:46:03;13.30;;;12.00;;
3259;SDS011;68938;48.150;14.004;2023-11-19T02:48:41;11.90;;;10.77;;
3259;SDS011;68938;48.150;14.004;2023-11-19T02:51:08;14.80;;;12.20;;
3259;SDS011;68938;48.150;14.004;2023-11-19T02:53:35;12.40;;;11.20;;
3259;SDS011;68938;48.150;14.004;2023-11-19T02:56:03;11.60;;;10.50;;
3259;SDS011;68938;48.150;14.004;2023-11-19T02:58:30;13.63;;;10.87;;
3259;SDS011;68938;48.150;14.004;2023-11-19T03:00:58;11.70;;;10.47;;
3259;SDS011;68938;48.150;14.004;2023-11-19T03:03:25;13.10;;;11.80;;
3259;SDS011;68938;48.150;14.004;2023-11-19T03:05:53;12.17;;;10.90;;
3259;SDS011;68938;48.150;14.004;2023-11-19T03:08:20;12.80;;;10.50;;
3259;SDS011;68938;48.150;14.004;2023-11-19T03:10:49;11.23;;;10.07;;
3259;SDS011;68938;48.150;14.004;2023-11-19T03:13:16;11.93;;;9.87;;
3259;SDS011;68938;48.150;14.004;2023-11-19T03:15:43;13.90;;;12.50;;
3259;SDS011;68938;48.150;14.004;2023-11-19T03:18:10;11.43;;;10.33;;
3259;SDS011;68938;48.150;14.004;2023-11-19T03:20:38;13.33;;;12.03;;
3259;SDS011;68938;48.150;14.004;2023-11-19T03:23:05;11.60;;;10.47;;
3259;SDS011;68938;48.150;14.004;2023-11-19T03:25:32;12.13;;;10.83;;
3259;SDS011;68938;48.150;14.004;2023-11-19T03:27:59;13.47;;;11.53;;
3259;SDS011;68938;48.150;14.004;2023-11-19T03:30:27;11.73;;;10.63;;
3259;SDS011;68938;48.150;14.004;2023-11-19T03:32:56;12.57;;;11.33;;
3259;SDS011;68938;48.150;14.004;2023-11-19T03:35:24;9.77;;;8.87;;
3259;SDS011;68938;48.150;14.004;2023-11-19T03:37:51;11.50;;;8.97;;
3259;SDS011;68938;48.150;14.004;2023-11-19T03:40:18;12.13;;;10.93;;
3259;SDS011;68938;48.150;14.004;2023-11-19T03:42:48;12.50;;;10.80;;
3259;SDS011;68938;48.150;14.004;2023-11-19T03:45:15;13.80;;;12.50;;
3259;SDS011;68938;48.150;14.004;2023-11-19T03:47:42;14.60;;;12.83;;
3259;SDS011;68938;48.150;14.004;2023-11-19T03:50:09;13.63;;;12.23;;
3259;SDS011;68938;48.150;14.004;2023-11-19T03:52:36;14.27;;;12.77;;
3259;SDS011;68938;48.150;14.004;2023-11-19T03:55:06;13.10;;;11.67;;
3259;SDS011;68938;48.150;14.004;2023-11-19T03:57:34;14.23;;;12.83;;
3259;SDS011;68938;48.150;14.004;2023-11-19T04:00:01;14.10;;;11.97;;
3259;SDS011;68938;48.150;14.004;2023-11-19T04:02:29;13.10;;;11.80;;
3259;SDS011;68938;48.150;14.004;2023-11-19T04:04:56;13.30;;;11.90;;
3259;SDS011;68938;48.150;14.004;2023-11-19T04:07:23;14.60;;;13.20;;
3259;SDS011;68938;48.150;14.004;2023-11-19T04:09:50;12.77;;;11.20;;
3259;SDS011;68938;48.150;14.004;2023-11-19T04:12:16;12.57;;;11.27;;
3259;SDS011;68938;48.150;14.004;2023-11-19T04:14:43;12.90;;;11.60;;
3259;SDS011;68938;48.150;14.004;2023-11-19T04:17:10;13.47;;;12.03;;
3259;SDS011;68938;48.150;14.004;2023-11-19T04:19:37;13.50;;;12.03;;
3259;SDS011;68938;48.150;14.004;2023-11-19T04:22:04;12.93;;;11.63;;
3259;SDS011;68938;48.150;14.004;2023-11-19T04:24:31;12.33;;;11.17;;
3259;SDS011;68938;48.150;14.004;2023-11-19T04:26:58;13.43;;;12.03;;
3259;SDS011;68938;48.150;14.004;2023-11-19T04:29:25;12.83;;;11.53;;
3259;SDS011;68938;48.150;14.004;2023-11-19T04:31:52;12.27;;;11.00;;
3259;SDS011;68938;48.150;14.004;2023-11-19T04:34:19;12.30;;;11.00;;
3259;SDS011;68938;48.150;14.004;2023-11-19T04:36:46;14.00;;;11.93;;
3259;SDS011;68938;48.150;14.004;2023-11-19T04:39:13;14.13;;;12.83;;
3259;SDS011;68938;48.150;14.004;2023-11-19T04:41:46;13.53;;;11.97;;
3259;SDS011;68938;48.150;14.004;2023-11-19T04:44:16;13.30;;;11.80;;
3259;SDS011;68938;48.150;14.004;2023-11-19T04:46:43;12.50;;;11.23;;
3259;SDS011;68938;48.150;14.004;2023-11-19T04:49:10;15.77;;;13.50;;
3259;SDS011;68938;48.150;14.004;2023-11-19T04:51:38;15.37;;;13.77;;
3259;SDS011;68938;48.150;14.004;2023-11-19T04:54:09;16.67;;;14.93;;
3259;SDS011;68938;48.150;14.004;2023-11-19T04:56:36;15.90;;;14.23;;
3259;SDS011;68938;48.150;14.004;2023-11-19T04:59:04;16.00;;;14.37;;
3259;SDS011;68938;48.150;14.004;2023-11-19T05:01:32;15.47;;;13.87;;
3259;SDS011;68938;48.150;14.004;2023-11-19T05:04:00;17.00;;;15.20;;
3259;SDS011;68938;48.150;14.004;2023-11-19T05:06:30;15.47;;;13.90;;
3259;SDS011;68938;48.150;14.004;2023-11-19T05:08:58;16.03;;;14.53;;
3259;SDS011;68938;48.150;14.004;2023-11-19T05:11:29;14.23;;;12.73;;
3259;SDS011;68938;48.150;14.004;2023-11-19T05:13:56;12.87;;;11.57;;
3259;SDS011;68938;48.150;14.004;2023-11-19T05:16:23;14.87;;;13.50;;
3259;SDS011;68938;48.150;14.004;2023-11-19T05:18:50;15.50;;;14.00;;
3259;SDS011;68938;48.150;14.004;2023-11-19T05:21:17;13.70;;;12.40;;
3259;SDS011;68938;48.150;14.004;2023-11-19T05:23:44;12.43;;;11.33;;
3259;SDS011;68938;48.150;14.004;2023-11-19T05:26:18;13.40;;;12.00;;
3259;SDS011;68938;48.150;14.004;2023-11-19T05:28:46;12.33;;;11.33;;
3259;SDS011;68938;48.150;14.004;2023-11-19T05:31:15;12.67;;;11.47;;
3259;SDS011;68938;48.150;14.004;2023-11-19T05:33:44;13.10;;;11.80;;
3259;SDS011;68938;48.150;14.004;2023-11-19T05:36:11;11.17;;;9.83;;
3259;SDS011;68938;48.150;14.004;2023-11-19T05:38:39;12.60;;;11.50;;
3259;SDS011;68938;48.150;14.004;2023-11-19T05:41:06;14.37;;;12.87;;
3259;SDS011;68938;48.150;14.004;2023-11-19T05:43:33;14.57;;;13.07;;
3259;SDS011;68938;48.150;14.004;2023-11-19T05:46:00;13.17;;;11.60;;
3259;SDS011;68938;48.150;14.004;2023-11-19T05:48:28;16.83;;;12.93;;
3259;SDS011;68938;48.150;14.004;2023-11-19T05:50:55;13.80;;;12.43;;
3259;SDS011;68938;48.150;14.004;2023-11-19T05:53:22;12.87;;;11.57;;
3259;SDS011;68938;48.150;14.004;2023-11-19T05:55:49;13.30;;;11.90;;
3259;SDS011;68938;48.150;14.004;2023-11-19T05:58:16;12.13;;;11.00;;
3259;SDS011;68938;48.150;14.004;2023-11-19T06:00:43;13.33;;;11.97;;
3259;SDS011;68938;48.150;14.004;2023-11-19T06:03:10;11.43;;;10.33;;
3259;SDS011;68938;48.150;14.004;2023-11-19T06:05:37;13.90;;;12.20;;
3259;SDS011;68938;48.150;14.004;2023-11-19T06:08:03;13.23;;;11.83;;
3259;SDS011;68938;48.150;14.004;2023-11-19T06:10:30;13.53;;;12.10;;
3259;SDS011;68938;48.150;14.004;2023-11-19T06:12:58;12.03;;;10.83;;
3259;SDS011;68938;48.150;14.004;2023-11-19T06:15:25;12.03;;;10.90;;
3259;SDS011;68938;48.150;14.004;2023-11-19T06:17:53;12.70;;;11.50;;
3259;SDS011;68938;48.150;14.004;2023-11-19T06:20:20;13.60;;;11.77;;
3259;SDS011;68938;48.150;14.004;2023-11-19T06:22:47;12.40;;;11.00;;
3259;SDS011;68938;48.150;14.004;2023-11-19T06:25:14;12.43;;;11.20;;
3259;SDS011;68938;48.150;14.004;2023-11-19T06:27:41;11.50;;;10.47;;
3259;SDS011;68938;48.150;14.004;2023-11-19T06:30:09;11.13;;;10.00;;
3259;SDS011;68938;48.150;14.004;2023-11-19T06:32:36;12.00;;;10.80;;
3259;SDS011;68938;48.150;14.004;2023-11-19T06:35:03;9.70;;;8.80;;
3259;SDS011;68938;48.150;14.004;2023-11-19T06:37:31;9.90;;;9.00;;
3259;SDS011;68938;48.150;14.004;2023-11-19T06:39:58;10.07;;;9.10;;
3259;SDS011;68938;48.150;14.004;2023-11-19T06:42:25;10.50;;;9.60;;
3259;SDS011;68938;48.150;14.004;2023-11-19T06:44:52;10.53;;;9.53;;
3259;SDS011;68938;48.150;14.004;2023-11-19T06:47:19;10.63;;;9.63;;
3259;SDS011;68938;48.150;14.004;2023-11-19T06:49:45;11.53;;;10.53;;
3259;SDS011;68938;48.150;14.004;2023-11-19T06:52:12;14.30;;;9.83;;
3259;SDS011;68938;48.150;14.004;2023-11-19T06:54:39;10.10;;;9.10;;
3259;SDS011;68938;48.150;14.004;2023-11-19T06:57:06;10.50;;;9.50;;
3259;SDS011;68938;48.150;14.004;2023-11-19T06:59:33;10.40;;;9.50;;
3259;SDS011;68938;48.150;14.004;2023-11-19T07:02:00;10.93;;;9.83;;
3259;SDS011;68938;48.150;14.004;2023-11-19T07:04:27;10.70;;;9.70;;
3259;SDS011;68938;48.150;14.004;2023-11-19T07:06:54;10.07;;;9.17;;
3259;SDS011;68938;48.150;14.004;2023-11-19T07:09:21;12.17;;;11.07;;
3259;SDS011;68938;48.150;14.004;2023-11-19T07:11:48;10.67;;;9.77;;
3259;SDS011;68938;48.150;14.004;2023-11-19T07:14:15;11.47;;;10.37;;
3259;SDS011;68938;48.150;14.004;2023-11-19T07:16:42;14.30;;;13.10;;
3259;SDS011;68938;48.150;14.004;2023-11-19T07:19:09;11.00;;;10.07;;
3259;SDS011;68938;48.150;14.004;2023-11-19T07:21:37;11.07;;;10.07;;
3259;SDS011;68938;48.150;14.004;2023-11-19T07:24:07;11.40;;;10.40;;
3259;SDS011;68938;48.150;14.004;2023-11-19T07:26:35;11.73;;;10.73;;
3259;SDS011;68938;48.150;14.004;2023-11-19T07:29:02;13.73;;;12.33;;
3259;SDS011;68938;48.150;14.004;2023-11-19T07:31:29;14.20;;;12.90;;
3259;SDS011;68938;48.150;14.004;2023-11-19T07:33:56;12.13;;;11.03;;
3259;SDS011;68938;48.150;14.004;2023-11-19T07:36:23;12.80;;;11.60;;
3259;SDS011;68938;48.150;14.004;2023-11-19T07:38:50;11.20;;;10.23;;
3259;SDS011;68938;48.150;14.004;2023-11-19T07:41:17;11.60;;;10.50;;
3259;SDS011;68938;48.150;14.004;2023-11-19T07:43:44;12.20;;;11.03;;
3259;SDS011;68938;48.150;14.004;2023-11-19T07:46:11;11.80;;;10.90;;
3259;SDS011;68938;48.150;14.004;2023-11-19T07:48:40;12.13;;;11.03;;
3259;SDS011;68938;48.150;14.004;2023-11-19T07:51:07;11.20;;;10.10;;
3259;SDS011;68938;48.150;14.004;2023-11-19T07:53:34;12.77;;;11.70;;
3259;SDS011;68938;48.150;14.004;2023-11-19T07:56:01;12.43;;;11.23;;
3259;SDS011;68938;48.150;14.004;2023-11-19T07:58:28;12.53;;;11.30;;
3259;SDS011;68938;48.150;14.004;2023-11-19T08:00:55;12.80;;;11.70;;
3259;SDS011;68938;48.150;14.004;2023-11-19T08:03:22;14.23;;;12.87;;
3259;SDS011;68938;48.150;14.004;2023-11-19T08:05:49;13.53;;;12.33;;
3259;SDS011;68938;48.150;14.004;2023-11-19T08:08:17;13.23;;;12.03;;
3259;SDS011;68938;48.150;14.004;2023-11-19T08:10:44;12.43;;;11.33;;
3259;SDS011;68938;48.150;14.004;2023-11-19T08:13:11;13.50;;;12.10;;
3259;SDS011;68938;48.150;14.004;2023-11-19T08:15:38;11.93;;;10.90;;
3259;SDS011;68938;48.150;14.004;2023-11-19T08:18:05;13.20;;;12.00;;
3259;SDS011;68938;48.150;14.004;2023-11-19T08:20:32;19.37;;;16.53;;
3259;SDS011;68938;48.150;14.004;2023-11-19T08:23:02;13.27;;;11.97;;
3259;SDS011;68938;48.150;14.004;2023-11-19T08:25:29;13.90;;;12.60;;
3259;SDS011;68938;48.150;14.004;2023-11-19T08:27:56;15.03;;;12.77;;
3259;SDS011;68938;48.150;14.004;2023-11-19T08:30:23;15.57;;;14.00;;
3259;SDS011;68938;48.150;14.004;2023-11-19T08:32:50;13.80;;;12.50;;
3259;SDS011;68938;48.150;14.004;2023-11-19T08:35:17;14.63;;;13.13;;
3259;SDS011;68938;48.150;14.004;2023-11-19T08:37:44;15.00;;;13.53;;
3259;SDS011;68938;48.150;14.004;2023-11-19T08:40:11;14.10;;;12.80;;
3259;SDS011;68938;48.150;14.004;2023-11-19T08:42:39;15.30;;;13.70;;
3259;SDS011;68938;48.150;14.004;2023-11-19T08:45:06;12.43;;;11.33;;
3259;SDS011;68938;48.150;14.004;2023-11-19T08:47:34;11.37;;;10.37;;
3259;SDS011;68938;48.150;14.004;2023-11-19T08:50:01;14.73;;;13.13;;
3259;SDS011;68938;48.150;14.004;2023-11-19T08:52:30;13.60;;;12.40;;
3259;SDS011;68938;48.150;14.004;2023-11-19T08:55:00;11.77;;;10.63;;
3259;SDS011;68938;48.150;14.004;2023-11-19T08:57:28;15.57;;;13.33;;
3259;SDS011;68938;48.150;14.004;2023-11-19T08:59:55;14.40;;;13.10;;
3259;SDS011;68938;48.150;14.004;2023-11-19T09:02:21;19.50;;;17.40;;
3259;SDS011;68938;48.150;14.004;2023-11-19T09:04:48;16.63;;;15.03;;
3259;SDS011;68938;48.150;14.004;2023-11-19T09:07:19;15.63;;;14.17;;
3259;SDS011;68938;48.150;14.004;2023-11-19T09:09:45;15.90;;;14.30;;
3259;SDS011;68938;48.150;14.004;2023-11-19T09:12:12;13.47;;;12.10;;
3259;SDS011;68938;48.150;14.004;2023-11-19T09:14:39;13.60;;;12.40;;
3259;SDS011;68938;48.150;14.004;2023-11-19T09:17:06;14.47;;;13.17;;
3259;SDS011;68938;48.150;14.004;2023-11-19T09:19:33;15.63;;;14.03;;
3259;SDS011;68938;48.150;14.004;2023-11-19T09:22:00;16.87;;;14.90;;
3259;SDS011;68938;48.150;14.004;2023-11-19T09:24:27;16.17;;;14.47;;
3259;SDS011;68938;48.150;14.004;2023-11-19T09:26:53;16.87;;;15.07;;
3259;SDS011;68938;48.150;14.004;2023-11-19T09:29:20;15.93;;;14.33;;
3259;SDS011;68938;48.150;14.004;2023-11-19T09:31:47;17.53;;;15.73;;
3259;SDS011;68938;48.150;14.004;2023-11-19T09:34:14;23.10;;;20.10;;
3259;SDS011;68938;48.150;14.004;2023-11-19T09:36:41;20.83;;;18.53;;
3259;SDS011;68938;48.150;14.004;2023-11-19T09:39:08;21.13;;;18.97;;
3259;SDS011;68938;48.150;14.004;2023-11-19T09:41:35;18.33;;;16.13;;
3259;SDS011;68938;48.150;14.004;2023-11-19T09:44:02;20.97;;;18.13;;
3259;SDS011;68938;48.150;14.004;2023-11-19T09:46:29;22.00;;;17.77;;
3259;SDS011;68938;48.150;14.004;2023-11-19T09:48:57;18.07;;;15.80;;
3259;SDS011;68938;48.150;14.004;2023-11-19T09:51:24;16.73;;;14.63;;
3259;SDS011;68938;48.150;14.004;2023-11-19T09:53:51;19.10;;;16.53;;
3259;SDS011;68938;48.150;14.004;2023-11-19T09:56:18;17.30;;;15.60;;
3259;SDS011;68938;48.150;14.004;2023-11-19T09:58:46;18.77;;;16.77;;
3259;SDS011;68938;48.150;14.004;2023-11-19T10:01:12;16.67;;;14.90;;
3259;SDS011;68938;48.150;14.004;2023-11-19T10:03:44;16.47;;;14.77;;
3259;SDS011;68938;48.150;14.004;2023-11-19T10:06:15;17.10;;;15.37;;
3259;SDS011;68938;48.150;14.004;2023-11-19T10:08:42;16.17;;;14.30;;
3259;SDS011;68938;48.150;14.004;2023-11-19T10:11:10;15.17;;;13.67;;
3259;SDS011;68938;48.150;14.004;2023-11-19T10:13:37;16.83;;;15.00;;
3259;SDS011;68938;48.150;14.004;2023-11-19T10:16:13;16.23;;;14.03;;
3259;SDS011;68938;48.150;14.004;2023-11-19T10:18:47;16.33;;;14.63;;
3259;SDS011;68938;48.150;14.004;2023-11-19T10:21:19;15.33;;;13.07;;
3259;SDS011;68938;48.150;14.004;2023-11-19T10:23:49;15.93;;;14.23;;
3259;SDS011;68938;48.150;14.004;2023-11-19T10:26:23;18.20;;;15.60;;
3259;SDS011;68938;48.150;14.004;2023-11-19T10:28:50;17.20;;;15.30;;
3259;SDS011;68938;48.150;14.004;2023-11-19T10:31:18;18.10;;;14.97;;
3259;SDS011;68938;48.150;14.004;2023-11-19T10:33:46;16.57;;;14.53;;
3259;SDS011;68938;48.150;14.004;2023-11-19T10:36:13;15.00;;;13.37;;
3259;SDS011;68938;48.150;14.004;2023-11-19T10:38:40;15.73;;;14.03;;
3259;SDS011;68938;48.150;14.004;2023-11-19T10:41:31;15.80;;;14.27;;
3259;SDS011;68938;48.150;14.004;2023-11-19T10:43:59;15.50;;;14.00;;
3259;SDS011;68938;48.150;14.004;2023-11-19T10:49:09;13.80;;;12.30;;
3259;SDS011;68938;48.150;14.004;2023-11-19T10:51:36;13.60;;;12.30;;
3259;SDS011;68938;48.150;14.004;2023-11-19T10:54:11;14.40;;;12.90;;
3259;SDS011;68938;48.150;14.004;2023-11-19T10:56:41;17.83;;;14.23;;
3259;SDS011;68938;48.150;14.004;2023-11-19T10:59:11;14.33;;;12.30;;
3259;SDS011;68938;48.150;14.004;2023-11-19T11:01:46;13.90;;;12.50;;
3259;SDS011;68938;48.150;14.004;2023-11-19T11:04:19;13.90;;;12.50;;
3259;SDS011;68938;48.150;14.004;2023-11-19T11:06:53;14.53;;;13.23;;
3259;SDS011;68938;48.150;14.004;2023-11-19T11:09:21;12.83;;;11.63;;
3259;SDS011;68938;48.150;14.004;2023-11-19T11:11:48;13.20;;;11.20;;
3259;SDS011;68938;48.150;14.004;2023-11-19T11:14:18;14.70;;;13.20;;
3259;SDS011;68938;48.150;14.004;2023-11-19T11:16:48;13.30;;;12.00;;
3259;SDS011;68938;48.150;14.004;2023-11-19T11:19:16;13.87;;;12.47;;
3259;SDS011;68938;48.150;14.004;2023-11-19T11:21:44;13.57;;;12.27;;
3259;SDS011;68938;48.150;14.004;2023-11-19T11:32:59;13.47;;;12.23;;
3259;SDS011;68938;48.150;14.004;2023-11-19T11:38:47;13.67;;;12.23;;
3259;SDS011;68938;48.150;14.004;2023-11-19T11:43:54;12.57;;;11.43;;
3259;SDS011;68938;48.150;14.004;2023-11-19T11:49:01;12.60;;;11.40;;
3259;SDS011;68938;48.150;14.004;2023-11-19T11:57:30;11.20;;;10.20;;
3259;SDS011;68938;48.150;14.004;2023-11-19T11:59:49;12.40;;;11.30;;
3259;SDS011;68938;48.150;14.004;2023-11-19T12:02:18;14.43;;;13.00;;
3259;SDS011;68938;48.150;14.004;2023-11-19T12:04:47;14.10;;;12.70;;
3259;SDS011;68938;48.150;14.004;2023-11-19T12:07:20;14.40;;;13.10;;
3259;SDS011;68938;48.150;14.004;2023-11-19T12:09:52;13.67;;;12.33;;
3259;SDS011;68938;48.150;14.004;2023-11-19T12:12:32;13.60;;;12.20;;
3259;SDS011;68938;48.150;14.004;2023-11-19T12:15:09;16.03;;;13.97;;
3259;SDS011;68938;48.150;14.004;2023-11-19T12:17:38;17.10;;;15.40;;
3259;SDS011;68938;48.150;14.004;2023-11-19T12:20:09;15.83;;;14.27;;
3259;SDS011;68938;48.150;14.004;2023-11-19T12:22:43;16.30;;;14.60;;
3259;SDS011;68938;48.150;14.004;2023-11-19T12:25:13;16.13;;;14.63;;
3259;SDS011;68938;48.150;14.004;2023-11-19T12:27:40;15.87;;;14.50;;
3259;SDS011;68938;48.150;14.004;2023-11-19T12:30:10;15.43;;;13.97;;
3259;SDS011;68938;48.150;14.004;2023-11-19T12:35:09;16.27;;;14.77;;
3259;SDS011;68938;48.150;14.004;2023-11-19T12:37:43;15.60;;;14.10;;
3259;SDS011;68938;48.150;14.004;2023-11-19T12:40:16;13.50;;;12.33;;
3259;SDS011;68938;48.150;14.004;2023-11-19T12:42:49;16.13;;;14.10;;
3259;SDS011;68938;48.150;14.004;2023-11-19T12:45:18;15.00;;;13.37;;
3259;SDS011;68938;48.150;14.004;2023-11-19T12:47:45;15.47;;;13.97;;
3259;SDS011;68938;48.150;14.004;2023-11-19T12:50:13;14.07;;;12.77;;
3259;SDS011;68938;48.150;14.004;2023-11-19T12:52:40;14.40;;;12.90;;
3259;SDS011;68938;48.150;14.004;2023-11-19T12:57:57;14.27;;;12.97;;
3259;SDS011;68938;48.150;14.004;2023-11-19T13:00:24;14.50;;;13.00;;
3259;SDS011;68938;48.150;14.004;2023-11-19T13:02:53;14.03;;;12.77;;
3259;SDS011;68938;48.150;14.004;2023-11-19T13:05:26;14.80;;;13.47;;
3259;SDS011;68938;48.150;14.004;2023-11-19T13:10:34;16.70;;;15.07;;
3259;SDS011;68938;48.150;14.004;2023-11-19T13:13:18;17.40;;;15.67;;
3259;SDS011;68938;48.150;14.004;2023-11-19T13:15:45;18.37;;;16.50;;
3259;SDS011;68938;48.150;14.004;2023-11-19T13:18:12;17.73;;;16.03;;
3259;SDS011;68938;48.150;14.004;2023-11-19T13:20:39;17.60;;;15.90;;
3259;SDS011;68938;48.150;14.004;2023-11-19T13:23:06;17.63;;;15.90;;
3259;SDS011;68938;48.150;14.004;2023-11-19T13:25:33;20.40;;;18.40;;
3259;SDS011;68938;48.150;14.004;2023-11-19T13:28:00;20.70;;;18.50;;
3259;SDS011;68938;48.150;14.004;2023-11-19T13:30:27;29.50;;;22.37;;
3259;SDS011;68938;48.150;14.004;2023-11-19T13:32:54;23.53;;;18.47;;
3259;SDS011;68938;48.150;14.004;2023-11-19T13:35:22;15.13;;;13.50;;
3259;SDS011;68938;48.150;14.004;2023-11-19T13:37:49;15.97;;;14.40;;
3259;SDS011;68938;48.150;14.004;2023-11-19T13:40:16;14.20;;;12.83;;
3259;SDS011;68938;48.150;14.004;2023-11-19T13:42:43;14.20;;;12.80;;
3259;SDS011;68938;48.150;14.004;2023-11-19T13:45:11;15.67;;;13.67;;
3259;SDS011;68938;48.150;14.004;2023-11-19T13:47:39;16.27;;;14.67;;
3259;SDS011;68938;48.150;14.004;2023-11-19T13:50:09;16.90;;;15.17;;
3259;SDS011;68938;48.150;14.004;2023-11-19T13:52:42;14.33;;;12.87;;
3259;SDS011;68938;48.150;14.004;2023-11-19T13:55:11;15.53;;;14.03;;
3259;SDS011;68938;48.150;14.004;2023-11-19T13:57:38;16.43;;;14.77;;
3259;SDS011;68938;48.150;14.004;2023-11-19T14:00:08;15.17;;;13.57;;
3259;SDS011;68938;48.150;14.004;2023-11-19T14:02:36;14.50;;;13.03;;
3259;SDS011;68938;48.150;14.004;2023-11-19T14:05:03;14.40;;;12.90;;
3259;SDS011;68938;48.150;14.004;2023-11-19T14:07:30;14.40;;;13.00;;
3259;SDS011;68938;48.150;14.004;2023-11-19T14:09:57;15.10;;;13.70;;
3259;SDS011;68938;48.150;14.004;2023-11-19T14:12:24;14.40;;;13.00;;
3259;SDS011;68938;48.150;14.004;2023-11-19T14:14:51;13.87;;;12.67;;
3259;SDS011;68938;48.150;14.004;2023-11-19T14:17:18;13.17;;;11.77;;
3259;SDS011;68938;48.150;14.004;2023-11-19T14:19:45;12.30;;;10.73;;
3259;SDS011;68938;48.150;14.004;2023-11-19T14:22:12;14.60;;;13.30;;
3259;SDS011;68938;48.150;14.004;2023-11-19T14:24:39;13.30;;;12.00;;
3259;SDS011;68938;48.150;14.004;2023-11-19T14:27:06;14.07;;;12.67;;
3259;SDS011;68938;48.150;14.004;2023-11-19T14:29:33;12.23;;;11.13;;
3259;SDS011;68938;48.150;14.004;2023-11-19T14:32:00;11.33;;;10.23;;
3259;SDS011;68938;48.150;14.004;2023-11-19T14:34:28;12.30;;;11.17;;
3259;SDS011;68938;48.150;14.004;2023-11-19T14:36:56;13.27;;;11.87;;
3259;SDS011;68938;48.150;14.004;2023-11-19T14:39:23;13.13;;;11.93;;
3259;SDS011;68938;48.150;14.004;2023-11-19T14:41:51;13.93;;;12.53;;
3259;SDS011;68938;48.150;14.004;2023-11-19T14:44:18;13.07;;;11.80;;
3259;SDS011;68938;48.150;14.004;2023-11-19T14:46:45;12.67;;;11.57;;
3259;SDS011;68938;48.150;14.004;2023-11-19T14:49:12;13.37;;;12.07;;
3259;SDS011;68938;48.150;14.004;2023-11-19T14:51:39;11.10;;;10.13;;
3259;SDS011;68938;48.150;14.004;2023-11-19T14:54:07;13.90;;;12.50;;
3259;SDS011;68938;48.150;14.004;2023-11-19T14:56:34;14.10;;;12.80;;
3259;SDS011;68938;48.150;14.004;2023-11-19T14:59:01;12.80;;;11.70;;
3259;SDS011;68938;48.150;14.004;2023-11-19T15:01:29;12.97;;;11.70;;
3259;SDS011;68938;48.150;14.004;2023-11-19T15:03:56;12.30;;;11.27;;